Terminal Aerodrome Forecast
Issued by NWS Jackson, KY

Home | Current Version | Previous Version | Text Only | Print | Product List | Glossary On
Versions: 1 2 3 4 5 6 7 8 9 10 11 12 13 14 15 16 17 18 19 20 21 22
000
FTUS43 KJKL 241308 AAB
TAFLOZ
TAF AMD
KLOZ 241308Z 2413/2512 VRB03KT 1 1/2SM BR OVC002
     FM241400 VRB05KT 3SM -SHRA BR VCTS BKN010CB OVC025
     FM241600 15004KT 3SM SHRA VCTS SCT010 OVC025CB
     FM250000 24007KT P6SM VCSH BKN030=

USA.gov is the U.S. government's official web portal to all federal, state and local government web resources and services.